Time;durP1;ratioP1;P1;durP2;ratioP2;P2;SDS_P1;SDS_P2;PMS_P1;PMS_P2;Temp;Humidity;BMP_temperature;BMP_pressure;BME280_temperature;BME280_humidity;BME280_pressure;Samples;Min_cycle;Max_cycle;Signal;HPM_P1;HPM_P2
2024/03/29 00:01:19;;;;;;;6.75;5.35;;;;;;;5.12;78.21;91688.06;2034600;70;20148;-74
2024/03/29 00:03:45;;;;;;;7.43;5.20;;;;;;;5.13;78.24;91683.94;2034794;70;20239;-75
2024/03/29 00:06:11;;;;;;;7.43;4.97;;;;;;;4.90;78.11;91656.69;2031166;70;20158;-74
2024/03/29 00:08:37;;;;;;;6.35;4.72;;;;;;;5.03;77.88;91679.16;2034458;70;20619;-74
2024/03/29 00:11:04;;;;;;;7.20;4.68;;;;;;;5.05;77.84;91670.94;2031003;70;20214;-74
2024/03/29 00:13:29;;;;;;;5.18;4.15;;;;;;;5.04;77.68;91677.09;2034321;70;20152;-75
2024/03/29 00:15:55;;;;;;;5.05;3.75;;;;;;;5.07;77.53;91684.28;2034610;70;20313;-73
2024/03/29 00:18:20;;;;;;;5.25;3.92;;;;;;;4.86;78.20;91668.31;2034578;70;20144;-73
2024/03/29 00:20:47;;;;;;;5.32;3.85;;;;;;;4.98;78.08;91679.50;2034590;70;20176;-73
2024/03/29 00:23:13;;;;;;;7.78;6.05;;;;;;;4.99;77.37;91690.06;2034397;70;20152;-73
2024/03/29 00:25:38;;;;;;;7.93;6.43;;;;;;;4.85;77.44;91678.72;2034460;70;20160;-73
2024/03/29 00:28:05;;;;;;;8.73;5.78;;;;;;;4.91;77.73;91670.03;2033989;70;20128;-74
2024/03/29 00:30:31;;;;;;;7.25;5.28;;;;;;;4.83;77.44;91659.09;2030154;70;20562;-73
2024/03/29 00:32:58;;;;;;;5.60;4.60;;;;;;;4.83;78.33;91669.50;2034298;70;20170;-74
2024/03/29 00:35:23;;;;;;;6.80;4.40;;;;;;;4.78;77.39;91665.00;2034537;70;20647;-75
2024/03/29 00:37:49;;;;;;;7.55;5.88;;;;;;;4.72;78.41;91676.50;2034150;70;20153;-74
2024/03/29 00:40:16;;;;;;;8.15;6.13;;;;;;;4.37;79.56;91667.19;2034631;70;20160;-75
2024/03/29 00:42:41;;;;;;;8.82;6.78;;;;;;;4.46;79.54;91669.19;2034702;70;20268;-74
2024/03/29 00:45:08;;;;;;;10.52;7.20;;;;;;;4.26;79.70;91682.47;2034992;70;20595;-74
2024/03/29 00:47:33;;;;;;;10.13;7.45;;;;;;;4.13;81.82;91667.03;2035276;70;20249;-74
2024/03/29 00:49:59;;;;;;;14.65;7.30;;;;;;;4.22;80.65;91662.72;2035212;70;20275;-73
2024/03/29 00:52:25;;;;;;;10.43;7.25;;;;;;;4.36;80.04;91672.03;2035143;70;20152;-75
2024/03/29 00:54:52;;;;;;;9.55;6.90;;;;;;;4.34;79.91;91663.53;2031672;70;20148;-74
2024/03/29 00:57:18;;;;;;;10.73;7.30;;;;;;;4.51;79.90;91654.91;2035554;70;20218;-75
2024/03/29 00:59:44;;;;;;;8.27;6.80;;;;;;;4.60;78.90;91653.38;2035309;70;20563;-75
2024/03/29 01:02:10;;;;;;;10.48;6.97;;;;;;;4.60;79.26;91658.97;2035451;70;20159;-74
2024/03/29 01:04:35;;;;;;;8.52;6.40;;;;;;;4.61;78.75;91654.84;2031426;70;20558;-74
2024/03/29 01:07:01;;;;;;;10.02;6.95;;;;;;;4.54;79.28;91653.72;2034988;70;20164;-74
2024/03/29 01:09:27;;;;;;;10.30;6.70;;;;;;;4.24;80.93;91660.81;2034658;70;20159;-74
2024/03/29 01:11:53;;;;;;;9.43;6.82;;;;;;;4.42;79.92;91657.78;2035132;70;20299;-74
2024/03/29 01:14:19;;;;;;;9.50;6.80;;;;;;;4.44;79.41;91664.19;2034703;70;20179;-75
2024/03/29 01:16:45;;;;;;;9.55;6.40;;;;;;;4.45;79.10;91651.75;2034700;70;20156;-75
2024/03/29 01:19:12;;;;;;;9.63;6.70;;;;;;;4.23;79.86;91648.19;2031397;70;20247;-75
2024/03/29 01:21:39;;;;;;;9.68;6.95;;;;;;;4.26;79.90;91637.91;2034867;70;20132;-75
2024/03/29 01:24:04;;;;;;;9.18;6.35;;;;;;;4.34;79.77;91638.44;2034875;70;20160;-74
2024/03/29 01:26:30;;;;;;;8.60;6.53;;;;;;;4.41;78.72;91636.81;2035201;70;20151;-75
2024/03/29 01:28:56;;;;;;;9.85;6.65;;;;;;;4.31;78.92;91634.81;2035158;70;20156;-76
2024/03/29 01:31:22;;;;;;;9.05;6.70;;;;;;;4.28;78.79;91626.91;2035083;70;20565;-75
2024/03/29 01:33:49;;;;;;;9.30;6.20;;;;;;;3.92;80.34;91631.50;2034635;70;20673;-75
2024/03/29 01:36:15;;;;;;;11.02;6.38;;;;;;;4.16;79.93;91640.75;2031435;70;20171;-74
2024/03/29 01:38:40;;;;;;;9.27;6.70;;;;;;;4.17;79.49;91636.66;2031633;70;20259;-74
2024/03/29 01:41:06;;;;;;;8.57;6.85;;;;;;;4.11;78.84;91633.47;2031487;70;20621;-74
2024/03/29 01:43:32;;;;;;;9.80;7.00;;;;;;;4.09;79.16;91641.69;2027812;70;20252;-75
2024/03/29 01:45:58;;;;;;;9.88;6.65;;;;;;;4.15;79.38;91617.00;2030817;70;20251;-75
2024/03/29 01:48:25;;;;;;;9.48;6.97;;;;;;;4.13;78.85;91613.38;2031172;70;20152;-75
2024/03/29 01:50:53;;;;;;;8.68;6.43;;;;;;;3.77;80.45;91610.34;2031792;70;20144;-75
2024/03/29 01:53:20;;;;;;;8.93;6.40;;;;;;;3.86;80.58;91600.47;2031565;70;20263;-75
2024/03/29 01:55:46;;;;;;;8.65;6.53;;;;;;;3.92;79.35;91600.16;2027992;70;20147;-74
2024/03/29 01:58:13;;;;;;;8.55;6.60;;;;;;;3.91;80.12;91601.47;2032252;70;20164;-74
2024/03/29 02:00:44;;;;;;;8.77;6.65;;;;;;;3.91;79.35;91598.69;2034441;70;20179;-74
2024/03/29 02:03:14;;;;;;;10.10;7.30;;;;;;;3.50;81.55;91599.47;2034860;70;20152;-74
2024/03/29 02:05:40;;;;;;;8.75;6.80;;;;;;;3.85;81.18;91593.47;2034974;70;20206;-74
2024/03/29 02:08:07;;;;;;;10.07;7.25;;;;;;;4.02;79.57;91604.34;2034625;70;20151;-74
2024/03/29 02:10:35;;;;;;;9.23;6.53;;;;;;;4.04;79.24;91596.13;2034740;70;20624;-74
2024/03/29 02:13:01;;;;;;;9.45;6.97;;;;;;;4.13;79.17;91593.88;2031382;70;20160;-73
2024/03/29 02:15:29;;;;;;;9.45;6.82;;;;;;;4.07;79.67;91591.41;2031347;70;20191;-74
2024/03/29 02:17:54;;;;;;;9.85;6.80;;;;;;;3.95;80.16;91594.13;2034946;70;20150;-74
2024/03/29 02:20:21;;;;;;;9.95;6.43;;;;;;;4.16;79.46;91610.13;2034769;70;20244;-75
2024/03/29 02:23:02;;;;;;;13.02;8.20;;;;;;;4.24;79.71;91599.50;2034888;70;20158;-73
2024/03/29 02:25:27;;;;;;;12.30;8.20;;;;;;;4.36;79.15;91601.66;2034821;70;20250;-73
2024/03/29 02:27:54;;;;;;;9.90;7.35;;;;;;;3.95;80.56;91598.97;2034238;70;20287;-74
2024/03/29 02:30:20;;;;;;;7.68;5.80;;;;;;;3.31;82.79;91566.88;2034882;70;20155;-73
2024/03/29 02:32:48;;;;;;;7.93;5.65;;;;;;;4.01;81.16;91594.53;2031037;70;20199;-75
2024/03/29 02:35:13;;;;;;;8.07;5.78;;;;;;;4.27;79.66;91605.97;2034660;70;20178;-74
2024/03/29 02:37:39;;;;;;;8.23;6.00;;;;;;;4.31;79.29;91617.38;2034686;70;20539;-74
2024/03/29 02:40:08;;;;;;;8.45;6.30;;;;;;;4.16;80.31;91620.53;2034251;70;20156;-74
2024/03/29 02:42:35;;;;;;;8.63;6.10;;;;;;;3.84;81.09;91591.97;2034693;70;20564;-74
2024/03/29 02:45:02;;;;;;;9.95;6.63;;;;;;;4.04;80.77;91606.53;2034443;70;20657;-75
2024/03/29 02:47:28;;;;;;;11.18;6.85;;;;;;;4.27;80.55;91603.16;2031075;70;20549;-74
2024/03/29 02:49:54;;;;;;;12.40;8.15;;;;;;;4.22;80.27;91604.97;2034439;70;20159;-75
2024/03/29 02:52:20;;;;;;;11.52;8.35;;;;;;;4.26;80.50;91619.16;2034730;70;20508;-74
2024/03/29 02:54:45;;;;;;;11.30;8.05;;;;;;;4.26;80.42;91635.13;2034584;70;20501;-75
2024/03/29 02:57:11;;;;;;;9.65;7.05;;;;;;;4.22;80.55;91632.09;2034725;70;20155;-73
2024/03/29 02:59:36;;;;;;;10.15;7.55;;;;;;;4.14;79.97;91626.69;2034457;70;20203;-74
2024/03/29 03:02:02;;;;;;;9.60;6.65;;;;;;;3.86;81.23;91628.31;2034512;70;20592;-74
2024/03/29 03:04:28;;;;;;;9.45;6.60;;;;;;;4.05;80.57;91622.66;2034664;70;20167;-74
2024/03/29 03:06:55;;;;;;;10.75;6.82;;;;;;;4.12;80.35;91611.91;2034574;70;20140;-75
2024/03/29 03:12:05;;;;;;;10.27;7.30;;;;;;;4.40;79.58;91638.13;2034847;70;20474;-74
2024/03/29 03:14:31;;;;;;;11.30;7.43;;;;;;;4.33;78.72;91639.78;2034587;70;20248;-74
2024/03/29 03:16:57;;;;;;;9.93;6.70;;;;;;;4.44;78.69;91650.25;2034837;70;20155;-74
2024/03/29 03:19:23;;;;;;;10.23;7.30;;;;;;;4.55;78.03;91654.47;2034308;70;20210;-74
2024/03/29 03:21:51;;;;;;;9.32;6.97;;;;;;;4.52;78.48;91644.50;2034473;70;20538;-74
2024/03/29 03:24:17;;;;;;;7.95;5.90;;;;;;;4.37;77.96;91653.97;2034679;70;20156;-75
2024/03/29 03:26:43;;;;;;;8.85;6.38;;;;;;;4.40;77.77;91644.44;2034802;70;20128;-74
2024/03/29 03:29:10;;;;;;;9.07;5.75;;;;;;;4.39;78.51;91647.81;2034493;70;20180;-74
2024/03/29 03:31:36;;;;;;;7.97;5.47;;;;;;;3.89;79.76;91643.81;2034816;70;20120;-74
2024/03/29 03:34:01;;;;;;;7.00;5.43;;;;;;;4.28;78.86;91652.72;2033973;70;20261;-75
2024/03/29 03:36:27;;;;;;;8.80;6.28;;;;;;;4.38;78.56;91654.72;2034561;70;20601;-74
2024/03/29 03:38:53;;;;;;;10.45;6.13;;;;;;;4.32;78.31;91652.97;2034362;70;20136;-74
2024/03/29 03:41:18;;;;;;;9.98;6.15;;;;;;;3.90;79.97;91633.44;2034480;70;20228;-74
2024/03/29 03:43:44;;;;;;;9.63;6.60;;;;;;;4.12;79.56;91653.69;2033893;70;20235;-74
2024/03/29 03:46:10;;;;;;;8.07;5.95;;;;;;;4.29;79.31;91626.31;2034510;70;20558;-74
2024/03/29 03:48:35;;;;;;;10.52;6.63;;;;;;;4.40;78.20;91641.66;2034475;70;20171;-74
2024/03/29 03:51:01;;;;;;;9.35;6.40;;;;;;;4.46;78.26;91644.84;2034621;70;20231;-74
2024/03/29 03:53:27;;;;;;;8.90;6.60;;;;;;;4.31;78.87;91648.75;2034249;70;20224;-74
2024/03/29 03:55:53;;;;;;;9.77;6.88;;;;;;;3.77;80.28;91645.78;2034744;70;20144;-73
2024/03/29 03:58:18;;;;;;;9.52;6.60;;;;;;;3.95;80.89;91658.19;2034318;70;20172;-74
2024/03/29 04:00:44;;;;;;;9.90;7.22;;;;;;;3.82;81.19;91655.88;2034547;70;20187;-73
2024/03/29 04:03:11;;;;;;;8.85;6.25;;;;;;;3.51;81.92;91650.28;2034392;70;20159;-74
2024/03/29 04:05:37;;;;;;;7.85;5.82;;;;;;;3.81;81.03;91654.44;2033878;70;20144;-74
2024/03/29 04:08:03;;;;;;;9.32;6.13;;;;;;;4.01;80.17;91685.69;2030376;70;20146;-74
2024/03/29 04:10:29;;;;;;;9.05;5.97;;;;;;;4.24;79.05;91674.72;2034576;70;20164;-74
2024/03/29 04:12:54;;;;;;;9.45;5.93;;;;;;;4.31;77.35;91673.09;2028108;70;20162;-73
2024/03/29 04:15:20;;;;;;;8.93;6.47;;;;;;;4.36;78.33;91682.44;2034159;70;20558;-74
2024/03/29 04:17:45;;;;;;;9.48;6.65;;;;;;;4.16;78.82;91671.41;2034697;70;20235;-74
2024/03/29 04:20:11;;;;;;;8.70;6.05;;;;;;;4.20;78.40;91659.81;2034859;70;20152;-74
2024/03/29 04:22:36;;;;;;;9.38;6.28;;;;;;;4.28;78.77;91668.69;2035033;70;20155;-73
2024/03/29 04:25:02;;;;;;;8.30;5.63;;;;;;;4.17;78.15;91652.63;2035057;70;20611;-74
2024/03/29 04:27:28;;;;;;;11.35;6.32;;;;;;;4.23;77.72;91662.13;2035068;70;20148;-74
2024/03/29 04:29:54;;;;;;;6.97;5.30;;;;;;;3.81;78.80;91662.78;2034951;70;20610;-73
2024/03/29 04:32:20;;;;;;;7.13;5.00;;;;;;;3.47;80.22;91677.81;2034436;70;20191;-73
2024/03/29 04:34:52;;;;;;;7.63;5.47;;;;;;;3.66;79.85;91682.59;2033953;70;20546;-74
2024/03/29 04:37:18;;;;;;;8.48;5.82;;;;;;;3.46;80.73;91673.59;2031085;70;20554;-73
2024/03/29 04:39:44;;;;;;;8.13;6.00;;;;;;;3.86;80.10;91681.22;2034774;70;20228;-74
2024/03/29 04:42:11;;;;;;;6.68;5.30;;;;;;;4.01;78.80;91686.41;2034775;70;20196;-74
2024/03/29 04:44:36;;;;;;;7.65;5.43;;;;;;;3.58;79.87;91671.66;2034513;70;20215;-72
2024/03/29 04:47:02;;;;;;;7.82;5.32;;;;;;;3.65;80.30;91689.50;2031082;70;20898;-74
2024/03/29 04:49:34;;;;;;;6.53;4.97;;;;;;;3.84;79.04;91703.34;2034598;70;20270;-75
2024/03/29 04:52:00;;;;;;;8.07;5.72;;;;;;;3.67;79.98;91704.28;2035084;70;20596;-75
2024/03/29 04:54:26;;;;;;;8.38;5.07;;;;;;;3.69;80.26;91701.63;2035053;70;20136;-75
2024/03/29 04:56:53;;;;;;;10.15;6.85;;;;;;;3.64;79.48;91693.59;2034693;70;20155;-74
2024/03/29 04:59:20;;;;;;;11.63;7.95;;;;;;;3.51;80.20;91687.19;2035059;70;20498;-75
2024/03/29 05:01:50;;;;;;;11.70;8.32;;;;;;;3.67;79.30;91670.88;2034825;70;20140;-74
2024/03/29 05:04:25;;;;;;;9.13;6.97;;;;;;;3.71;78.47;91679.53;2035103;70;20604;-75
2024/03/29 05:06:57;;;;;;;6.38;5.00;;;;;;;3.63;78.93;91681.75;2035065;70;20163;-74
2024/03/29 05:09:26;;;;;;;4.65;3.60;;;;;;;3.49;79.44;91692.63;2034876;70;20187;-73
2024/03/29 05:11:52;;;;;;;7.40;5.35;;;;;;;3.51;79.07;91694.78;2035083;70;20175;-74
2024/03/29 05:14:19;;;;;;;7.30;5.00;;;;;;;2.99;81.21;91701.63;2034980;70;20239;-75
2024/03/29 05:16:45;;;;;;;7.68;5.40;;;;;;;3.10;81.59;91707.91;2035093;70;20558;-73
2024/03/29 05:19:15;;;;;;;7.18;5.18;;;;;;;3.41;80.10;91703.16;2034724;70;20140;-74
2024/03/29 05:21:41;;;;;;;6.43;4.90;;;;;;;3.45;79.33;91716.66;2034817;70;20666;-74
2024/03/29 05:24:08;;;;;;;9.30;5.63;;;;;;;3.27;79.83;91713.31;2034870;70;20144;-74
2024/03/29 05:26:34;;;;;;;6.70;5.22;;;;;;;3.44;79.06;91710.34;2035046;70;20179;-73
2024/03/29 05:28:59;;;;;;;5.68;4.03;;;;;;;3.45;79.10;91717.38;2034418;70;20176;-74
2024/03/29 05:31:26;;;;;;;5.40;3.60;;;;;;;3.48;78.99;91707.84;2034820;70;20140;-74
2024/03/29 05:33:52;;;;;;;5.40;3.45;;;;;;;3.50;78.89;91715.59;2031495;70;20156;-73
2024/03/29 05:36:18;;;;;;;4.60;3.08;;;;;;;3.51;78.68;91711.50;2034855;70;20190;-73
2024/03/29 05:38:45;;;;;;;5.43;4.13;;;;;;;3.51;78.52;91706.66;2034824;70;20200;-73
2024/03/29 05:41:11;;;;;;;7.90;5.57;;;;;;;2.76;82.56;91718.00;2031397;70;20232;-73
2024/03/29 05:43:39;;;;;;;6.35;5.03;;;;;;;2.89;83.16;91708.50;2032976;70;20168;-73
2024/03/29 05:46:05;;;;;;;7.22;5.13;;;;;;;3.15;80.89;91715.22;2034594;70;20240;-74
2024/03/29 05:48:31;;;;;;;7.03;5.10;;;;;;;3.29;80.33;91713.44;2034955;70;20231;-74
2024/03/29 05:50:56;;;;;;;6.63;5.07;;;;;;;3.19;80.68;91727.34;2034920;70;20187;-74
2024/03/29 05:53:22;;;;;;;8.20;5.30;;;;;;;3.35;79.82;91718.72;2034852;70;20140;-74
2024/03/29 05:55:47;;;;;;;7.95;4.90;;;;;;;3.40;78.70;91717.69;2034927;70;20170;-74
2024/03/29 05:58:17;;;;;;;6.88;5.07;;;;;;;3.46;79.13;91718.09;2033143;70;20160;-74
2024/03/29 06:00:44;;;;;;;6.10;4.55;;;;;;;3.41;79.25;91730.25;2033614;70;20234;-74
2024/03/29 06:03:10;;;;;;;8.13;5.18;;;;;;;3.25;80.08;91736.16;2034935;70;20146;-74
2024/03/29 06:05:36;;;;;;;6.65;4.47;;;;;;;3.36;79.68;91739.66;2034739;70;20156;-74
2024/03/29 06:08:02;;;;;;;6.78;4.85;;;;;;;3.26;80.01;91745.94;2034444;70;20152;-73
2024/03/29 06:10:27;;;;;;;8.82;5.07;;;;;;;3.29;79.83;91733.63;2034725;70;20276;-74
2024/03/29 06:12:53;;;;;;;7.07;5.22;;;;;;;3.19;80.28;91741.25;2034495;70;20171;-74
2024/03/29 06:18:07;;;;;;;7.45;5.82;;;;;;;3.25;80.03;91725.03;2034793;70;20140;-73
2024/03/29 06:20:34;;;;;;;8.25;5.40;;;;;;;3.35;78.75;91719.44;2035061;70;20168;-74
2024/03/29 06:23:00;;;;;;;8.20;5.97;;;;;;;2.66;82.73;91740.22;2028726;70;20147;-73
2024/03/29 06:25:26;;;;;;;8.98;5.95;;;;;;;3.18;81.88;91717.56;2031297;70;20140;-73
2024/03/29 06:27:52;;;;;;;9.77;6.07;;;;;;;3.43;80.28;91724.84;2034741;70;20190;-73
2024/03/29 06:30:19;;;;;;;9.50;6.93;;;;;;;2.99;82.17;91737.03;2034707;70;20231;-75
2024/03/29 06:32:45;;;;;;;10.20;6.97;;;;;;;3.37;80.77;91730.69;2035031;70;20672;-73
2024/03/29 06:35:14;;;;;;;9.30;6.38;;;;;;;3.03;81.79;91731.75;2035467;70;20247;-75
2024/03/29 06:37:40;;;;;;;10.45;6.30;;;;;;;3.43;81.46;91758.22;2035106;70;20243;-74
2024/03/29 06:40:07;;;;;;;9.73;6.32;;;;;;;3.79;80.16;91738.53;2035099;70;20155;-75
2024/03/29 06:42:33;;;;;;;11.00;6.78;;;;;;;3.80;80.64;91751.13;2031746;70;20152;-75
2024/03/29 06:44:58;;;;;;;9.48;6.80;;;;;;;4.12;80.50;91751.88;2035072;70;20168;-74
2024/03/29 06:47:25;;;;;;;10.25;7.03;;;;;;;3.37;81.31;91746.66;2031596;70;20152;-74
2024/03/29 06:49:50;;;;;;;11.00;7.40;;;;;;;3.87;81.43;91740.41;2035358;70;20604;-72
2024/03/29 06:52:16;;;;;;;10.07;6.43;;;;;;;4.09;79.97;91755.88;2031875;70;20182;-72
2024/03/29 06:54:42;;;;;;;9.65;6.93;;;;;;;4.68;79.35;91745.94;2035400;70;20158;-72
2024/03/29 06:57:09;;;;;;;11.05;7.25;;;;;;;4.91;78.72;91728.59;2035416;70;20156;-75
2024/03/29 06:59:35;;;;;;;10.77;7.80;;;;;;;4.50;79.89;91744.72;2035043;70;20163;-74
2024/03/29 07:02:01;;;;;;;9.98;7.20;;;;;;;4.69;79.63;91739.00;2031154;70;20144;-75
2024/03/29 07:04:27;;;;;;;9.25;6.72;;;;;;;4.82;78.97;91732.91;2035095;70;20160;-74
2024/03/29 07:06:54;;;;;;;8.93;6.03;;;;;;;4.85;78.92;91756.06;2035045;70;20680;-73
2024/03/29 07:09:21;;;;;;;8.82;6.10;;;;;;;5.29;78.56;91735.94;2035113;70;20219;-76
2024/03/29 07:11:48;;;;;;;9.35;7.03;;;;;;;5.39;77.59;91735.13;2031548;70;20171;-74
2024/03/29 07:14:18;;;;;;;11.38;6.95;;;;;;;4.38;79.36;91716.00;2034634;70;20584;-74
2024/03/29 07:16:44;;;;;;;13.82;7.70;;;;;;;4.70;80.77;91734.91;2034799;70;20144;-74
2024/03/29 07:19:12;;;;;;;12.70;7.00;;;;;;;5.59;77.81;91720.41;2034642;70;20203;-75
2024/03/29 07:21:43;;;;;;;10.68;6.57;;;;;;;5.88;77.13;91708.19;2034812;70;20156;-74
2024/03/29 07:24:09;;;;;;;9.18;5.85;;;;;;;5.97;75.78;91692.69;2034850;70;20148;-75
2024/03/29 07:26:34;;;;;;;7.47;5.13;;;;;;;6.42;75.83;91700.97;2034660;70;20227;-74
2024/03/29 07:29:00;;;;;;;7.05;5.35;;;;;;;6.51;74.89;91703.66;2034493;70;20160;-74
2024/03/29 07:31:26;;;;;;;9.18;5.50;;;;;;;6.64;77.15;91716.25;2034868;70;20164;-74
2024/03/29 07:33:52;;;;;;;12.32;8.50;;;;;;;6.51;75.28;91702.91;2031075;70;20149;-75
2024/03/29 07:36:17;;;;;;;10.00;4.70;;;;;;;6.15;74.61;91718.97;2034638;70;20215;-75
2024/03/29 07:38:46;;;;;;;6.18;4.22;;;;;;;5.40;79.39;91725.41;2034707;70;20542;-75
2024/03/29 07:41:13;;;;;;;6.38;4.07;;;;;;;6.46;76.35;91704.00;2034599;70;20470;-75
2024/03/29 07:43:40;;;;;;;6.25;4.50;;;;;;;6.80;76.72;91686.47;2034507;70;20158;-75
2024/03/29 07:46:08;;;;;;;7.43;4.53;;;;;;;7.05;74.33;91694.16;2031116;70;20136;-75
2024/03/29 07:48:34;;;;;;;7.15;4.97;;;;;;;7.23;72.96;91704.94;2034572;70;20216;-75
2024/03/29 07:51:00;;;;;;;7.15;4.75;;;;;;;7.59;73.62;91717.47;2034721;70;20175;-75
2024/03/29 07:53:25;;;;;;;7.55;4.38;;;;;;;7.59;73.86;91701.41;2030763;70;20184;-75
2024/03/29 07:55:51;;;;;;;7.30;4.85;;;;;;;7.47;74.45;91702.78;2031021;70;20136;-75
2024/03/29 07:58:17;;;;;;;7.60;4.78;;;;;;;7.32;74.71;91713.19;2034448;70;20494;-73
2024/03/29 08:00:43;;;;;;;5.25;3.45;;;;;;;7.59;72.63;91709.78;2034827;70;20170;-75
2024/03/29 08:03:08;;;;;;;7.80;5.07;;;;;;;7.77;72.18;91706.56;2035076;70;20297;-73
2024/03/29 08:05:34;;;;;;;7.40;4.97;;;;;;;7.82;71.14;91683.72;2031098;70;20208;-73
2024/03/29 08:08:00;;;;;;;8.52;5.05;;;;;;;8.35;70.33;91680.94;2034495;70;20228;-72
2024/03/29 08:10:26;;;;;;;12.07;4.50;;;;;;;8.25;71.68;91693.72;2034600;70;20144;-73
2024/03/29 08:12:51;;;;;;;11.93;8.10;;;;;;;8.14;72.05;91681.94;2034613;70;20156;-75
2024/03/29 08:15:18;;;;;;;7.95;5.90;;;;;;;8.30;71.21;91664.53;2029523;70;20273;-74
2024/03/29 08:17:45;;;;;;;10.15;5.53;;;;;;;8.77;69.53;91662.06;2031095;70;20129;-74
2024/03/29 08:20:10;;;;;;;9.07;5.75;;;;;;;8.97;69.86;91684.81;2031262;70;20314;-74
2024/03/29 08:22:37;;;;;;;9.88;5.28;;;;;;;9.10;68.40;91683.34;2031158;70;20562;-74
2024/03/29 08:25:02;;;;;;;8.27;5.40;;;;;;;9.19;68.35;91696.44;2030871;70;20152;-74
2024/03/29 08:27:28;;;;;;;7.45;4.78;;;;;;;9.00;68.52;91677.94;2030907;70;20247;-75
2024/03/29 08:29:54;;;;;;;8.73;4.80;;;;;;;9.49;67.87;91668.38;2030994;70;20501;-74
2024/03/29 08:32:19;;;;;;;7.78;4.55;;;;;;;9.37;68.07;91674.84;2031221;70;20200;-73
2024/03/29 08:34:48;;;;;;;8.30;4.60;;;;;;;9.34;68.59;91683.81;2031160;70;20155;-74
2024/03/29 08:37:14;;;;;;;4.95;3.90;;;;;;;9.57;68.10;91680.72;2030996;70;20137;-74
2024/03/29 08:39:39;;;;;;;4.63;2.60;;;;;;;9.54;68.13;91673.56;2030853;70;20179;-74
2024/03/29 08:42:06;;;;;;;5.10;3.00;;;;;;;9.92;67.60;91659.88;2030659;70;20125;-74
2024/03/29 08:44:32;;;;;;;5.68;4.10;;;;;;;10.05;68.78;91666.78;2026969;70;20196;-75
2024/03/29 08:47:01;;;;;;;5.70;3.65;;;;;;;9.42;69.71;91687.75;2031210;70;20248;-76
2024/03/29 08:49:27;;;;;;;4.40;3.03;;;;;;;9.83;68.15;91664.38;2031127;70;20522;-75
2024/03/29 08:51:53;;;;;;;4.50;2.75;;;;;;;10.28;66.47;91651.69;2030694;70;20167;-75
2024/03/29 08:54:19;;;;;;;2.67;2.13;;;;;;;9.66;66.90;91673.41;2031079;70;20136;-75
2024/03/29 08:56:44;;;;;;;2.67;1.73;;;;;;;10.39;67.00;91653.56;2030982;70;20192;-74
2024/03/29 08:59:11;;;;;;;2.58;1.70;;;;;;;10.81;66.33;91663.19;2031154;70;20515;-75
2024/03/29 09:01:41;;;;;;;3.63;1.90;;;;;;;11.05;65.19;91640.25;2027998;70;20152;-74
2024/03/29 09:04:11;;;;;;;2.85;2.08;;;;;;;11.24;64.14;91641.72;2031133;70;20171;-74
2024/03/29 09:06:39;;;;;;;4.97;2.55;;;;;;;10.75;64.13;91619.94;2031656;70;20143;-74
2024/03/29 09:09:06;;;;;;;3.05;2.17;;;;;;;10.55;66.21;91620.53;2031644;70;20140;-74
2024/03/29 09:11:32;;;;;;;4.95;2.92;;;;;;;10.13;66.06;91636.22;2031699;70;20133;-74
2024/03/29 09:14:02;;;;;;;4.78;2.47;;;;;;;10.85;65.12;91623.19;2031396;70;20155;-73
2024/03/29 09:16:30;;;;;;;3.85;2.50;;;;;;;11.38;64.39;91634.56;2031190;70;20163;-74
2024/03/29 09:18:56;;;;;;;7.70;3.00;;;;;;;11.52;62.91;91648.50;2031626;70;20144;-75
2024/03/29 09:21:23;;;;;;;4.07;2.42;;;;;;;11.74;63.16;91628.94;2031440;70;20144;-73
2024/03/29 09:23:52;;;;;;;4.40;2.65;;;;;;;11.04;63.81;91655.66;2028256;70;20137;-74
2024/03/29 09:26:18;;;;;;;4.95;2.33;;;;;;;11.75;62.44;91650.13;2031447;70;20172;-75
2024/03/29 09:28:44;;;;;;;3.00;2.20;;;;;;;12.22;62.55;91637.84;2031276;70;20608;-75
2024/03/29 09:31:10;;;;;;;6.30;2.67;;;;;;;12.41;61.14;91664.66;2031478;70;20157;-74
2024/03/29 09:33:35;;;;;;;3.15;2.10;;;;;;;12.53;60.32;91636.16;2031467;70;20224;-74
2024/03/29 09:36:01;;;;;;;4.60;2.17;;;;;;;12.66;59.97;91618.28;2031545;70;20506;-73
2024/03/29 09:38:27;;;;;;;5.43;2.15;;;;;;;12.01;59.34;91621.53;2031646;70;20339;-73
2024/03/29 09:41:16;;;;;;;15.50;7.07;;;;;;;11.59;61.14;91618.47;2031498;70;20179;-74
2024/03/29 09:43:46;;;;;;;5.40;2.90;;;;;;;11.62;60.99;91617.91;2031434;70;20304;-74
2024/03/29 09:46:16;;;;;;;11.90;5.60;;;;;;;12.39;60.32;91625.78;2031530;70;20173;-73
2024/03/29 09:48:48;;;;;;;3.80;2.47;;;;;;;12.78;59.99;91621.53;2028317;70;20571;-73
2024/03/29 09:51:14;;;;;;;4.53;2.50;;;;;;;12.89;59.15;91634.63;2031410;70;20156;-73
2024/03/29 09:53:42;;;;;;;3.00;2.17;;;;;;;13.06;58.87;91615.44;2031228;70;20226;-73
2024/03/29 09:56:08;;;;;;;5.25;3.00;;;;;;;13.05;58.65;91619.63;2031173;70;20163;-72
2024/03/29 09:58:35;;;;;;;4.38;2.70;;;;;;;13.30;57.87;91607.81;2031122;70;20232;-73
2024/03/29 10:01:03;;;;;;;3.55;2.63;;;;;;;12.32;59.07;91620.56;2031115;70;20168;-73
2024/03/29 10:03:30;;;;;;;10.00;6.15;;;;;;;11.74;61.05;91625.41;2031205;70;20505;-73
2024/03/29 10:06:08;;;;;;;3.78;2.30;;;;;;;12.92;60.30;91607.19;2031437;70;20152;-73
2024/03/29 10:08:34;;;;;;;4.45;1.98;;;;;;;13.56;57.23;91607.94;2031346;70;20144;-73
2024/03/29 10:11:01;;;;;;;2.50;1.83;;;;;;;14.01;56.40;91600.13;2031388;70;20257;-73
2024/03/29 10:13:27;;;;;;;3.45;2.13;;;;;;;13.52;57.61;91621.97;2031559;70;20171;-74
2024/03/29 10:15:55;;;;;;;3.03;2.15;;;;;;;14.49;56.41;91593.13;2031022;70;20195;-73
2024/03/29 10:18:26;;;;;;;2.40;1.90;;;;;;;15.66;54.19;91604.72;2027992;70;20493;-73
2024/03/29 10:21:08;;;;;;;2.83;1.77;;;;;;;16.13;52.07;91592.34;2031111;70;20156;-75
2024/03/29 10:23:38;;;;;;;4.05;2.10;;;;;;;15.99;52.95;91598.44;2031150;70;20149;-74
2024/03/29 10:26:04;;;;;;;5.25;1.90;;;;;;;17.77;50.07;91584.91;2027930;70;20236;-76
2024/03/29 10:28:35;;;;;;;2.08;1.63;;;;;;;16.75;49.85;91585.88;2031081;70;20271;-77
2024/03/29 10:31:03;;;;;;;2.28;1.50;;;;;;;17.14;48.59;91583.81;2031333;70;20231;-74
2024/03/29 10:33:33;;;;;;;2.75;1.55;;;;;;;18.29;47.39;91578.63;2031312;70;20231;-75
2024/03/29 10:36:07;;;;;;;1.98;1.65;;;;;;;19.43;45.00;91582.91;2031332;70;20155;-76
2024/03/29 10:38:34;;;;;;;2.03;1.80;;;;;;;19.41;45.67;91582.16;2031409;70;20132;-74
2024/03/29 10:41:01;;;;;;;2.17;1.50;;;;;;;19.98;43.70;91577.72;2025313;70;20205;-75
2024/03/29 10:43:28;;;;;;;3.75;1.70;;;;;;;19.74;44.64;91575.34;2030968;70;20271;-74
2024/03/29 10:45:58;;;;;;;2.90;1.63;;;;;;;21.44;44.41;91568.56;2031433;70;20140;-74
2024/03/29 10:48:29;;;;;;;3.33;1.75;;;;;;;22.48;42.54;91570.78;2031438;70;20327;-75
2024/03/29 10:50:57;;;;;;;1.80;1.38;;;;;;;23.15;39.80;91559.16;2031413;70;20140;-78
2024/03/29 10:53:25;;;;;;;2.00;1.50;;;;;;;23.77;39.91;91579.69;2031379;70;20275;-75
2024/03/29 10:55:56;;;;;;;2.35;1.48;;;;;;;24.31;38.47;91558.47;2031317;70;20591;-75
2024/03/29 10:58:25;;;;;;;2.42;1.60;;;;;;;25.29;37.04;91554.66;2031256;70;20133;-74
2024/03/29 11:00:57;;;;;;;2.35;1.50;;;;;;;24.44;36.08;91556.22;2031368;70;20168;-75
2024/03/29 11:03:50;;;;;;;2.20;1.60;;;;;;;23.44;37.67;91579.13;2031209;70;20215;-75
2024/03/29 11:06:18;;;;;;;2.17;1.50;;;;;;;22.18;40.73;91551.47;2029531;70;20144;-75
2024/03/29 11:08:47;;;;;;;2.60;2.00;;;;;;;22.07;40.24;91542.81;2031299;70;20155;-75
2024/03/29 11:11:14;;;;;;;4.43;1.70;;;;;;;22.25;39.97;91547.16;2031121;70;20163;-77
2024/03/29 11:13:49;;;;;;;5.45;2.50;;;;;;;21.65;40.55;91551.41;2031284;70;20144;-74
2024/03/29 11:16:19;;;;;;;2.05;1.70;;;;;;;21.74;40.64;91535.66;2028116;70;20156;-77
2024/03/29 11:18:44;;;;;;;2.88;1.70;;;;;;;20.14;43.83;91544.97;2031244;70;20136;-75
2024/03/29 11:21:12;;;;;;;2.85;1.70;;;;;;;20.38;44.16;91536.56;2031398;70;20178;-74
2024/03/29 11:23:39;;;;;;;4.38;2.00;;;;;;;22.68;41.60;91538.47;2031539;70;20223;-75
2024/03/29 11:26:06;;;;;;;2.38;1.80;;;;;;;22.19;40.43;91538.56;2031361;70;20143;-74
2024/03/29 11:28:34;;;;;;;3.15;2.10;;;;;;;22.16;41.42;91537.13;2027692;70;20148;-75
2024/03/29 11:31:05;;;;;;;2.42;2.10;;;;;;;21.87;41.44;91551.44;2027860;70;20188;-75
2024/03/29 11:33:44;;;;;;;4.97;1.95;;;;;;;23.50;37.83;91524.53;2031289;70;20140;-75
2024/03/29 11:36:11;;;;;;;3.17;1.30;;;;;;;24.09;36.89;91521.25;2031158;70;20258;-75
2024/03/29 11:38:37;;;;;;;3.22;1.90;;;;;;;28.97;32.65;91528.25;2031365;70;20537;-75
2024/03/29 11:41:10;;;;;;;2.30;1.50;;;;;;;31.82;29.92;91512.75;2031954;70;20147;-74
2024/03/29 11:43:37;;;;;;;1.95;1.30;;;;;;;28.82;31.74;91522.09;2034715;70;20144;-75